Amarone — SBGA — position and weather

sailwx.info

Track history (hours):
 
Tides and Currents Weather Stations Pressure Air Temp Water Temp Dewpoint Dewpoint Depression Visibility Wind Speed Wind Dir Waves Ship Positions

Amarone

Last reported at 2017-Nov-19 15:50 UTC. Time now 2017-Dec-18 12:55 UTC.
Position N 27°53' W 015°21'.
Warning: this ship's position is 28 days out of date.

Length 14 m.

Type: Pleasure craft. MMSI: 265595750.

Date/timePositionNaut miles runAvg speedWind from/ knotsBaromVisibWave heightAir tempDewpointWater temp
2017-Nov-19 15:50N 27°53' W 015°21'2 5.8
2017-Nov-19 15:29N 27°55' W 015°21'3 5.7
2017-Nov-19 15:00N 27°58' W 015°21'3 5.6
2017-Nov-19 14:30N 28°00' W 015°21'2 4.8
2017-Nov-19 14:00N 28°03' W 015°22'2 4.4
2017-Nov-19 13:30N 28°05' W 015°23'2 4.3
2017-Nov-19 13:00N 28°07' W 015°24'1 2.0
2017-Nov-19 12:30N 28°08' W 015°24'0 0.6
2017-Nov-19 12:00N 28°07' W 015°25'1 1.6
2017-Nov-19 11:29N 28°08' W 015°26'0 0.0
2017-Nov-19 10:56N 28°08' W 015°26'0 0.0
2017-Nov-19 10:26N 28°08' W 015°26'  
2017-Nov-14 16:07N 28°08' W 015°26'0 0.0
2017-Nov-14 15:55N 28°08' W 015°26'0 0.0
2017-Nov-14 15:25N 28°08' W 015°26'0 0.0
2017-Nov-14 14:55N 28°08' W 015°26'  
Track history (hours):
 
Tides and Currents Weather Stations Pressure Air Temp Water Temp Dewpoint Dewpoint Depression Visibility Wind Speed Wind Dir Waves Ship Positions

Amarone

Last reported at 2017-Nov-19 15:50 UTC. Time now 2017-Dec-18 12:55 UTC.
Position N 27°53' W 015°21'.
Warning: this ship's position is 28 days out of date.

Length 14 m.

Type: Pleasure craft. MMSI: 265595750.

Date/timePositionNaut miles runAvg speedWind from/ knotsBaromVisibWave heightAir tempDewpointWater temp
2017-Nov-19 15:50N 27°53' W 015°21'2 5.8
2017-Nov-19 15:29N 27°55' W 015°21'3 5.7
2017-Nov-19 15:00N 27°58' W 015°21'3 5.6
2017-Nov-19 14:30N 28°00' W 015°21'2 4.8
2017-Nov-19 14:00N 28°03' W 015°22'2 4.4
2017-Nov-19 13:30N 28°05' W 015°23'2 4.3
2017-Nov-19 13:00N 28°07' W 015°24'1 2.0
2017-Nov-19 12:30N 28°08' W 015°24'0 0.6
2017-Nov-19 12:00N 28°07' W 015°25'1 1.6
2017-Nov-19 11:29N 28°08' W 015°26'0 0.0
2017-Nov-19 10:56N 28°08' W 015°26'0 0.0
2017-Nov-19 10:26N 28°08' W 015°26'  
2017-Nov-14 16:07N 28°08' W 015°26'0 0.0
2017-Nov-14 15:55N 28°08' W 015°26'0 0.0
2017-Nov-14 15:25N 28°08' W 015°26'0 0.0
2017-Nov-14 14:55N 28°08' W 015°26'  

Dump ship's entire track history